sensor_id;sensor_type;location;lat;lon;timestamp;temperature;humidity
25342;DHT22;13298;48.792;9.154;2023-02-11T00:00:30;-1.00;99.90
25342;DHT22;13298;48.792;9.154;2023-02-11T00:02:56;-1.10;99.90
25342;DHT22;13298;48.792;9.154;2023-02-11T00:05:22;-1.10;99.90
25342;DHT22;13298;48.792;9.154;2023-02-11T00:07:47;-1.00;99.90
25342;DHT22;13298;48.792;9.154;2023-02-11T00:10:13;-1.10;99.90
25342;DHT22;13298;48.792;9.154;2023-02-11T00:12:39;-1.00;99.90
25342;DHT22;13298;48.792;9.154;2023-02-11T00:15:06;-1.00;99.90
25342;DHT22;13298;48.792;9.154;2023-02-11T00:17:32;-1.00;99.90
25342;DHT22;13298;48.792;9.154;2023-02-11T00:19:58;-1.00;99.90
25342;DHT22;13298;48.792;9.154;2023-02-11T00:22:24;-0.90;99.90
25342;DHT22;13298;48.792;9.154;2023-02-11T00:24:49;-1.00;99.90
25342;DHT22;13298;48.792;9.154;2023-02-11T00:27:15;-1.00;99.90
25342;DHT22;13298;48.792;9.154;2023-02-11T00:29:41;-1.00;99.90
25342;DHT22;13298;48.792;9.154;2023-02-11T00:32:09;-1.10;99.90
25342;DHT22;13298;48.792;9.154;2023-02-11T00:34:35;-1.10;99.90
25342;DHT22;13298;48.792;9.154;2023-02-11T00:37:03;-1.20;99.90
25342;DHT22;13298;48.792;9.154;2023-02-11T00:39:29;-1.20;99.90
25342;DHT22;13298;48.792;9.154;2023-02-11T00:41:55;-1.20;99.90
25342;DHT22;13298;48.792;9.154;2023-02-11T00:44:21;-1.30;99.90
25342;DHT22;13298;48.792;9.154;2023-02-11T00:46:47;-1.30;99.90
25342;DHT22;13298;48.792;9.154;2023-02-11T00:49:13;-1.40;99.90
25342;DHT22;13298;48.792;9.154;2023-02-11T00:51:39;-1.40;99.90
25342;DHT22;13298;48.792;9.154;2023-02-11T00:54:04;-1.40;99.90
25342;DHT22;13298;48.792;9.154;2023-02-11T00:56:30;-1.40;99.90
25342;DHT22;13298;48.792;9.154;2023-02-11T00:58:56;-1.40;99.90
25342;DHT22;13298;48.792;9.154;2023-02-11T01:01:22;-1.40;99.90
25342;DHT22;13298;48.792;9.154;2023-02-11T01:03:48;-1.40;99.90
25342;DHT22;13298;48.792;9.154;2023-02-11T01:06:13;-1.30;99.90
25342;DHT22;13298;48.792;9.154;2023-02-11T01:08:39;-1.30;99.90
25342;DHT22;13298;48.792;9.154;2023-02-11T01:11:11;-1.20;99.90
25342;DHT22;13298;48.792;9.154;2023-02-11T01:13:42;-1.20;99.90
25342;DHT22;13298;48.792;9.154;2023-02-11T01:16:09;-1.20;99.90
25342;DHT22;13298;48.792;9.154;2023-02-11T01:18:36;-1.20;99.90
25342;DHT22;13298;48.792;9.154;2023-02-11T01:21:02;-1.20;99.90
25342;DHT22;13298;48.792;9.154;2023-02-11T01:23:28;-1.20;99.90
25342;DHT22;13298;48.792;9.154;2023-02-11T01:25:54;-1.20;99.90
25342;DHT22;13298;48.792;9.154;2023-02-11T01:28:24;-1.30;99.90
25342;DHT22;13298;48.792;9.154;2023-02-11T01:30:51;-1.30;99.90
25342;DHT22;13298;48.792;9.154;2023-02-11T01:33:17;-1.30;99.90
25342;DHT22;13298;48.792;9.154;2023-02-11T01:35:43;-1.30;99.90
25342;DHT22;13298;48.792;9.154;2023-02-11T01:38:21;-1.30;99.90
25342;DHT22;13298;48.792;9.154;2023-02-11T01:40:49;-1.20;99.90
25342;DHT22;13298;48.792;9.154;2023-02-11T01:43:17;-1.20;99.90
25342;DHT22;13298;48.792;9.154;2023-02-11T01:48:19;-1.00;99.90
25342;DHT22;13298;48.792;9.154;2023-02-11T01:50:49;-0.90;99.90
25342;DHT22;13298;48.792;9.154;2023-02-11T01:53:17;-0.90;99.90
25342;DHT22;13298;48.792;9.154;2023-02-11T01:56:03;-0.80;99.90
25342;DHT22;13298;48.792;9.154;2023-02-11T01:58:50;-0.70;99.90
25342;DHT22;13298;48.792;9.154;2023-02-11T02:01:21;-0.60;99.90
25342;DHT22;13298;48.792;9.154;2023-02-11T02:03:50;-0.60;99.90
25342;DHT22;13298;48.792;9.154;2023-02-11T02:06:23;-0.60;99.90
25342;DHT22;13298;48.792;9.154;2023-02-11T02:09:03;-0.70;99.90
25342;DHT22;13298;48.792;9.154;2023-02-11T02:11:30;-0.70;99.90
25342;DHT22;13298;48.792;9.154;2023-02-11T02:13:56;-0.70;99.90
25342;DHT22;13298;48.792;9.154;2023-02-11T02:16:25;-0.70;99.90
25342;DHT22;13298;48.792;9.154;2023-02-11T02:22:40;-0.80;99.90
25342;DHT22;13298;48.792;9.154;2023-02-11T02:28:34;-0.80;99.90
25342;DHT22;13298;48.792;9.154;2023-02-11T02:31:51;-0.80;99.90
25342;DHT22;13298;48.792;9.154;2023-02-11T02:40:54;-1.00;99.90
25342;DHT22;13298;48.792;9.154;2023-02-11T02:43:22;-1.00;99.90
25342;DHT22;13298;48.792;9.154;2023-02-11T02:45:50;-1.00;99.90
25342;DHT22;13298;48.792;9.154;2023-02-11T02:48:32;-1.10;99.90
25342;DHT22;13298;48.792;9.154;2023-02-11T02:55:02;-1.10;99.90
25342;DHT22;13298;48.792;9.154;2023-02-11T03:00:33;-1.10;99.90
25342;DHT22;13298;48.792;9.154;2023-02-11T03:03:28;-1.10;99.90
25342;DHT22;13298;48.792;9.154;2023-02-11T03:11:05;-1.10;99.90
25342;DHT22;13298;48.792;9.154;2023-02-11T03:13:35;-1.10;99.90
25342;DHT22;13298;48.792;9.154;2023-02-11T03:16:28;-1.10;99.90
25342;DHT22;13298;48.792;9.154;2023-02-11T03:19:19;-1.10;99.90
25342;DHT22;13298;48.792;9.154;2023-02-11T03:21:49;-1.10;99.90
25342;DHT22;13298;48.792;9.154;2023-02-11T03:24:24;-1.00;99.90
25342;DHT22;13298;48.792;9.154;2023-02-11T03:26:57;-1.00;99.90
25342;DHT22;13298;48.792;9.154;2023-02-11T03:29:40;-1.00;99.90
25342;DHT22;13298;48.792;9.154;2023-02-11T03:32:18;-1.00;99.90
25342;DHT22;13298;48.792;9.154;2023-02-11T03:34:57;-0.90;99.90
25342;DHT22;13298;48.792;9.154;2023-02-11T03:37:32;-0.80;99.90
25342;DHT22;13298;48.792;9.154;2023-02-11T03:40:04;-0.80;99.90
25342;DHT22;13298;48.792;9.154;2023-02-11T03:42:43;-0.80;99.90
25342;DHT22;13298;48.792;9.154;2023-02-11T03:45:12;-0.80;99.90
25342;DHT22;13298;48.792;9.154;2023-02-11T03:47:46;-0.80;99.90
25342;DHT22;13298;48.792;9.154;2023-02-11T03:50:15;-0.80;99.90
25342;DHT22;13298;48.792;9.154;2023-02-11T03:52:43;-0.70;99.90
25342;DHT22;13298;48.792;9.154;2023-02-11T03:55:14;-0.70;99.90
25342;DHT22;13298;48.792;9.154;2023-02-11T03:57:41;-0.60;99.90
25342;DHT22;13298;48.792;9.154;2023-02-11T04:00:08;-0.50;99.90
25342;DHT22;13298;48.792;9.154;2023-02-11T04:02:37;-0.30;99.90
25342;DHT22;13298;48.792;9.154;2023-02-11T04:05:05;-0.30;99.90
25342;DHT22;13298;48.792;9.154;2023-02-11T04:07:32;-0.20;99.90
25342;DHT22;13298;48.792;9.154;2023-02-11T04:09:58;-0.10;99.90
25342;DHT22;13298;48.792;9.154;2023-02-11T04:12:24;0.00;99.90
25342;DHT22;13298;48.792;9.154;2023-02-11T04:14:50;0.00;99.90
25342;DHT22;13298;48.792;9.154;2023-02-11T04:17:16;0.00;99.90
25342;DHT22;13298;48.792;9.154;2023-02-11T04:19:42;0.10;99.90
25342;DHT22;13298;48.792;9.154;2023-02-11T04:22:08;0.20;99.90
25342;DHT22;13298;48.792;9.154;2023-02-11T04:24:34;0.20;99.90
25342;DHT22;13298;48.792;9.154;2023-02-11T04:27:00;0.30;99.90
25342;DHT22;13298;48.792;9.154;2023-02-11T04:29:26;0.30;99.90
25342;DHT22;13298;48.792;9.154;2023-02-11T04:31:53;0.20;99.90
25342;DHT22;13298;48.792;9.154;2023-02-11T04:34:20;0.20;99.90
25342;DHT22;13298;48.792;9.154;2023-02-11T04:36:46;0.30;99.90
25342;DHT22;13298;48.792;9.154;2023-02-11T04:39:12;0.30;99.90
25342;DHT22;13298;48.792;9.154;2023-02-11T04:41:37;0.30;99.90
25342;DHT22;13298;48.792;9.154;2023-02-11T04:44:04;0.30;99.90
25342;DHT22;13298;48.792;9.154;2023-02-11T04:46:29;0.40;99.90
25342;DHT22;13298;48.792;9.154;2023-02-11T04:48:56;0.40;99.90
25342;DHT22;13298;48.792;9.154;2023-02-11T04:51:21;0.40;99.90
25342;DHT22;13298;48.792;9.154;2023-02-11T04:53:47;0.40;99.90
25342;DHT22;13298;48.792;9.154;2023-02-11T04:56:13;0.40;99.90
25342;DHT22;13298;48.792;9.154;2023-02-11T04:58:39;0.40;99.90
25342;DHT22;13298;48.792;9.154;2023-02-11T05:01:10;0.40;99.90
25342;DHT22;13298;48.792;9.154;2023-02-11T05:03:37;0.40;99.90
25342;DHT22;13298;48.792;9.154;2023-02-11T05:06:03;0.50;99.90
25342;DHT22;13298;48.792;9.154;2023-02-11T05:08:30;0.40;99.90
25342;DHT22;13298;48.792;9.154;2023-02-11T05:10:55;0.50;99.90
25342;DHT22;13298;48.792;9.154;2023-02-11T05:13:21;0.50;99.90
25342;DHT22;13298;48.792;9.154;2023-02-11T05:15:47;0.50;99.90
25342;DHT22;13298;48.792;9.154;2023-02-11T05:18:12;0.50;99.90
25342;DHT22;13298;48.792;9.154;2023-02-11T05:20:42;0.50;99.90
25342;DHT22;13298;48.792;9.154;2023-02-11T05:23:08;0.60;99.90
25342;DHT22;13298;48.792;9.154;2023-02-11T05:25:34;0.60;99.90
25342;DHT22;13298;48.792;9.154;2023-02-11T05:28:00;0.60;99.90
25342;DHT22;13298;48.792;9.154;2023-02-11T05:30:26;0.60;99.90
25342;DHT22;13298;48.792;9.154;2023-02-11T05:32:52;0.50;99.90
25342;DHT22;13298;48.792;9.154;2023-02-11T05:35:17;0.50;99.90
25342;DHT22;13298;48.792;9.154;2023-02-11T05:37:43;0.50;99.90
25342;DHT22;13298;48.792;9.154;2023-02-11T05:40:09;0.50;99.90
25342;DHT22;13298;48.792;9.154;2023-02-11T05:42:35;0.50;99.90
25342;DHT22;13298;48.792;9.154;2023-02-11T05:45:01;0.40;99.90
25342;DHT22;13298;48.792;9.154;2023-02-11T05:47:26;0.50;99.90
25342;DHT22;13298;48.792;9.154;2023-02-11T05:49:52;0.50;99.90
25342;DHT22;13298;48.792;9.154;2023-02-11T05:52:21;0.50;99.90
25342;DHT22;13298;48.792;9.154;2023-02-11T05:54:47;0.50;99.90
25342;DHT22;13298;48.792;9.154;2023-02-11T05:57:13;0.50;99.90
25342;DHT22;13298;48.792;9.154;2023-02-11T05:59:39;0.60;99.90
25342;DHT22;13298;48.792;9.154;2023-02-11T06:02:05;0.60;99.90
25342;DHT22;13298;48.792;9.154;2023-02-11T06:04:33;0.70;99.90
25342;DHT22;13298;48.792;9.154;2023-02-11T06:06:58;0.70;99.90
25342;DHT22;13298;48.792;9.154;2023-02-11T06:09:25;0.70;99.90
25342;DHT22;13298;48.792;9.154;2023-02-11T06:11:51;0.70;99.90
25342;DHT22;13298;48.792;9.154;2023-02-11T06:14:17;0.70;99.90
25342;DHT22;13298;48.792;9.154;2023-02-11T06:16:43;0.70;99.90
25342;DHT22;13298;48.792;9.154;2023-02-11T06:19:08;0.70;99.90
25342;DHT22;13298;48.792;9.154;2023-02-11T06:21:34;0.70;99.90
25342;DHT22;13298;48.792;9.154;2023-02-11T06:24:00;0.70;99.90
25342;DHT22;13298;48.792;9.154;2023-02-11T06:26:25;0.70;99.90
25342;DHT22;13298;48.792;9.154;2023-02-11T06:28:51;0.70;99.90
25342;DHT22;13298;48.792;9.154;2023-02-11T06:31:17;0.70;99.90
25342;DHT22;13298;48.792;9.154;2023-02-11T06:33:43;0.70;99.90
25342;DHT22;13298;48.792;9.154;2023-02-11T06:36:14;0.70;99.90
25342;DHT22;13298;48.792;9.154;2023-02-11T06:38:44;0.70;99.90
25342;DHT22;13298;48.792;9.154;2023-02-11T06:41:16;0.70;99.90
25342;DHT22;13298;48.792;9.154;2023-02-11T06:43:44;0.70;99.90
25342;DHT22;13298;48.792;9.154;2023-02-11T06:46:10;0.80;99.90
25342;DHT22;13298;48.792;9.154;2023-02-11T06:48:36;0.70;99.90
25342;DHT22;13298;48.792;9.154;2023-02-11T06:51:07;0.80;99.90
25342;DHT22;13298;48.792;9.154;2023-02-11T06:53:36;0.80;99.90
25342;DHT22;13298;48.792;9.154;2023-02-11T06:56:07;0.80;99.90
25342;DHT22;13298;48.792;9.154;2023-02-11T06:58:35;0.80;99.90
25342;DHT22;13298;48.792;9.154;2023-02-11T07:01:05;0.90;99.90
25342;DHT22;13298;48.792;9.154;2023-02-11T07:03:34;0.90;99.90
25342;DHT22;13298;48.792;9.154;2023-02-11T07:06:02;0.90;99.90
25342;DHT22;13298;48.792;9.154;2023-02-11T07:08:30;1.00;99.90
25342;DHT22;13298;48.792;9.154;2023-02-11T07:10:57;1.00;99.90
25342;DHT22;13298;48.792;9.154;2023-02-11T07:13:22;1.00;99.90
25342;DHT22;13298;48.792;9.154;2023-02-11T07:15:48;1.10;99.90
25342;DHT22;13298;48.792;9.154;2023-02-11T07:18:14;1.10;99.90
25342;DHT22;13298;48.792;9.154;2023-02-11T07:20:40;1.10;99.90
25342;DHT22;13298;48.792;9.154;2023-02-11T07:23:05;1.20;99.90
25342;DHT22;13298;48.792;9.154;2023-02-11T07:25:31;1.20;99.90
25342;DHT22;13298;48.792;9.154;2023-02-11T07:27:57;1.20;99.90
25342;DHT22;13298;48.792;9.154;2023-02-11T07:30:23;1.20;99.90
25342;DHT22;13298;48.792;9.154;2023-02-11T07:32:48;1.20;99.90
25342;DHT22;13298;48.792;9.154;2023-02-11T07:35:14;1.20;99.90
25342;DHT22;13298;48.792;9.154;2023-02-11T07:37:40;1.20;99.90
25342;DHT22;13298;48.792;9.154;2023-02-11T07:40:07;1.20;99.90
25342;DHT22;13298;48.792;9.154;2023-02-11T07:42:34;1.30;99.90
25342;DHT22;13298;48.792;9.154;2023-02-11T07:45:00;1.40;99.90
25342;DHT22;13298;48.792;9.154;2023-02-11T07:47:25;1.50;99.90
25342;DHT22;13298;48.792;9.154;2023-02-11T07:49:51;1.60;99.90
25342;DHT22;13298;48.792;9.154;2023-02-11T07:52:17;1.70;99.90
25342;DHT22;13298;48.792;9.154;2023-02-11T07:54:44;1.80;99.90
25342;DHT22;13298;48.792;9.154;2023-02-11T07:57:10;1.90;99.90
25342;DHT22;13298;48.792;9.154;2023-02-11T07:59:36;2.00;99.90
25342;DHT22;13298;48.792;9.154;2023-02-11T08:02:01;2.10;99.90
25342;DHT22;13298;48.792;9.154;2023-02-11T08:04:27;2.20;99.90
25342;DHT22;13298;48.792;9.154;2023-02-11T08:06:53;2.20;99.90
25342;DHT22;13298;48.792;9.154;2023-02-11T08:09:22;2.30;99.90
25342;DHT22;13298;48.792;9.154;2023-02-11T08:11:47;2.40;99.90
25342;DHT22;13298;48.792;9.154;2023-02-11T08:14:14;2.40;99.90
25342;DHT22;13298;48.792;9.154;2023-02-11T08:16:40;2.50;99.90
25342;DHT22;13298;48.792;9.154;2023-02-11T08:19:10;2.60;99.90
25342;DHT22;13298;48.792;9.154;2023-02-11T08:21:38;2.70;99.90
25342;DHT22;13298;48.792;9.154;2023-02-11T08:24:05;2.80;99.90
25342;DHT22;13298;48.792;9.154;2023-02-11T08:26:32;2.90;99.90
25342;DHT22;13298;48.792;9.154;2023-02-11T08:29:00;3.00;99.90
25342;DHT22;13298;48.792;9.154;2023-02-11T08:31:31;3.10;99.90
25342;DHT22;13298;48.792;9.154;2023-02-11T08:33:58;3.20;99.90
25342;DHT22;13298;48.792;9.154;2023-02-11T08:36:29;3.10;99.90
25342;DHT22;13298;48.792;9.154;2023-02-11T08:38:58;3.10;99.90
25342;DHT22;13298;48.792;9.154;2023-02-11T08:41:27;3.00;99.90
25342;DHT22;13298;48.792;9.154;2023-02-11T08:43:53;3.00;99.90
25342;DHT22;13298;48.792;9.154;2023-02-11T08:46:19;2.90;99.90
25342;DHT22;13298;48.792;9.154;2023-02-11T08:48:46;2.80;99.90
25342;DHT22;13298;48.792;9.154;2023-02-11T08:51:16;2.80;99.90
25342;DHT22;13298;48.792;9.154;2023-02-11T08:53:47;2.80;99.90
25342;DHT22;13298;48.792;9.154;2023-02-11T08:56:14;2.80;99.90
25342;DHT22;13298;48.792;9.154;2023-02-11T08:58:41;2.80;99.90
25342;DHT22;13298;48.792;9.154;2023-02-11T09:01:41;2.90;99.90
25342;DHT22;13298;48.792;9.154;2023-02-11T09:04:00;2.90;99.90
25342;DHT22;13298;48.792;9.154;2023-02-11T09:06:26;3.00;99.90
25342;DHT22;13298;48.792;9.154;2023-02-11T09:08:53;3.10;99.90
25342;DHT22;13298;48.792;9.154;2023-02-11T09:11:23;3.20;99.90
25342;DHT22;13298;48.792;9.154;2023-02-11T09:13:51;3.30;99.90
25342;DHT22;13298;48.792;9.154;2023-02-11T09:16:20;3.30;99.90
25342;DHT22;13298;48.792;9.154;2023-02-11T09:18:47;3.40;99.90
25342;DHT22;13298;48.792;9.154;2023-02-11T09:21:15;3.40;99.90
25342;DHT22;13298;48.792;9.154;2023-02-11T09:23:41;3.50;99.90
25342;DHT22;13298;48.792;9.154;2023-02-11T09:26:12;3.50;99.90
25342;DHT22;13298;48.792;9.154;2023-02-11T09:28:43;3.50;99.90
25342;DHT22;13298;48.792;9.154;2023-02-11T09:31:11;3.60;99.90
25342;DHT22;13298;48.792;9.154;2023-02-11T09:33:40;3.60;99.90
25342;DHT22;13298;48.792;9.154;2023-02-11T09:36:16;3.60;99.90
25342;DHT22;13298;48.792;9.154;2023-02-11T09:38:47;3.70;99.90
25342;DHT22;13298;48.792;9.154;2023-02-11T09:43:55;3.70;99.90
25342;DHT22;13298;48.792;9.154;2023-02-11T09:46:22;3.80;99.90
25342;DHT22;13298;48.792;9.154;2023-02-11T09:48:51;3.90;99.90
25342;DHT22;13298;48.792;9.154;2023-02-11T09:51:32;4.00;99.90
25342;DHT22;13298;48.792;9.154;2023-02-11T09:54:20;4.10;99.90
25342;DHT22;13298;48.792;9.154;2023-02-11T09:56:50;4.30;99.90
25342;DHT22;13298;48.792;9.154;2023-02-11T09:59:16;4.50;99.90
25342;DHT22;13298;48.792;9.154;2023-02-11T10:02:16;4.60;99.90
25342;DHT22;13298;48.792;9.154;2023-02-11T10:10:55;4.80;99.90
25342;DHT22;13298;48.792;9.154;2023-02-11T10:13:39;4.70;99.90
25342;DHT22;13298;48.792;9.154;2023-02-11T10:24:58;4.80;99.90
25342;DHT22;13298;48.792;9.154;2023-02-11T10:27:33;4.90;99.90
25342;DHT22;13298;48.792;9.154;2023-02-11T10:30:18;5.00;99.90
25342;DHT22;13298;48.792;9.154;2023-02-11T10:32:48;5.10;99.90
25342;DHT22;13298;48.792;9.154;2023-02-11T10:35:20;5.10;99.90
25342;DHT22;13298;48.792;9.154;2023-02-11T10:37:47;5.30;99.90
25342;DHT22;13298;48.792;9.154;2023-02-11T10:40:19;5.40;99.90
25342;DHT22;13298;48.792;9.154;2023-02-11T10:42:49;5.50;99.90
25342;DHT22;13298;48.792;9.154;2023-02-11T10:45:38;5.60;99.90
25342;DHT22;13298;48.792;9.154;2023-02-11T10:51:28;5.50;99.90
25342;DHT22;13298;48.792;9.154;2023-02-11T10:56:31;5.40;99.90
25342;DHT22;13298;48.792;9.154;2023-02-11T10:59:16;5.40;99.90
25342;DHT22;13298;48.792;9.154;2023-02-11T11:01:49;5.40;99.90
25342;DHT22;13298;48.792;9.154;2023-02-11T11:04:31;5.40;99.90
25342;DHT22;13298;48.792;9.154;2023-02-11T11:09:53;5.50;99.90
25342;DHT22;13298;48.792;9.154;2023-02-11T11:12:29;5.60;99.90
25342;DHT22;13298;48.792;9.154;2023-02-11T11:15:11;5.60;99.90
25342;DHT22;13298;48.792;9.154;2023-02-11T11:17:41;5.70;99.90
25342;DHT22;13298;48.792;9.154;2023-02-11T11:20:18;5.70;99.90
25342;DHT22;13298;48.792;9.154;2023-02-11T11:22:50;5.70;99.90
25342;DHT22;13298;48.792;9.154;2023-02-11T11:27:52;5.80;99.90
25342;DHT22;13298;48.792;9.154;2023-02-11T11:30:19;5.90;99.90
25342;DHT22;13298;48.792;9.154;2023-02-11T11:32:46;6.00;99.90
25342;DHT22;13298;48.792;9.154;2023-02-11T11:35:27;6.00;99.90
25342;DHT22;13298;48.792;9.154;2023-02-11T11:37:58;6.10;99.90
25342;DHT22;13298;48.792;9.154;2023-02-11T11:40:33;6.20;99.90
25342;DHT22;13298;48.792;9.154;2023-02-11T11:43:18;6.30;99.90
25342;DHT22;13298;48.792;9.154;2023-02-11T11:46:05;6.40;99.90
25342;DHT22;13298;48.792;9.154;2023-02-11T11:48:37;6.50;99.90
25342;DHT22;13298;48.792;9.154;2023-02-11T11:51:08;6.60;99.90
25342;DHT22;13298;48.792;9.154;2023-02-11T11:53:40;6.80;99.90
25342;DHT22;13298;48.792;9.154;2023-02-11T11:58:36;7.30;99.90
25342;DHT22;13298;48.792;9.154;2023-02-11T12:07:21;7.90;99.90
25342;DHT22;13298;48.792;9.154;2023-02-11T12:10:28;8.00;99.90
25342;DHT22;13298;48.792;9.154;2023-02-11T12:13:12;8.00;99.90
25342;DHT22;13298;48.792;9.154;2023-02-11T12:16:12;8.00;99.90
25342;DHT22;13298;48.792;9.154;2023-02-11T12:25:23;8.20;99.90
25342;DHT22;13298;48.792;9.154;2023-02-11T12:39:30;8.40;99.90
25342;DHT22;13298;48.792;9.154;2023-02-11T12:48:55;8.60;99.90
25342;DHT22;13298;48.792;9.154;2023-02-11T12:51:35;8.70;99.90
25342;DHT22;13298;48.792;9.154;2023-02-11T12:54:39;8.70;99.90
25342;DHT22;13298;48.792;9.154;2023-02-11T13:08:37;7.80;99.90
25342;DHT22;13298;48.792;9.154;2023-02-11T13:11:07;7.70;99.90
25342;DHT22;13298;48.792;9.154;2023-02-11T13:16:53;7.70;99.90
25342;DHT22;13298;48.792;9.154;2023-02-11T13:19:49;7.70;99.90
25342;DHT22;13298;48.792;9.154;2023-02-11T13:22:34;7.60;99.90
25342;DHT22;13298;48.792;9.154;2023-02-11T13:25:35;7.50;99.90
25342;DHT22;13298;48.792;9.154;2023-02-11T13:28:33;7.40;99.90
25342;DHT22;13298;48.792;9.154;2023-02-11T13:31:04;7.30;99.90
25342;DHT22;13298;48.792;9.154;2023-02-11T13:33:34;7.10;99.90
25342;DHT22;13298;48.792;9.154;2023-02-11T13:38:28;6.90;99.90
25342;DHT22;13298;48.792;9.154;2023-02-11T13:41:18;6.70;99.90
25342;DHT22;13298;48.792;9.154;2023-02-11T13:47:02;6.50;99.90
25342;DHT22;13298;48.792;9.154;2023-02-11T13:49:40;6.50;99.90
25342;DHT22;13298;48.792;9.154;2023-02-11T13:54:57;6.60;99.90
25342;DHT22;13298;48.792;9.154;2023-02-11T13:57:31;6.70;99.90
25342;DHT22;13298;48.792;9.154;2023-02-11T14:03:38;6.80;99.90
25342;DHT22;13298;48.792;9.154;2023-02-11T14:06:27;6.80;99.90
25342;DHT22;13298;48.792;9.154;2023-02-11T14:09:37;6.90;99.90
25342;DHT22;13298;48.792;9.154;2023-02-11T14:12:29;6.90;99.90
25342;DHT22;13298;48.792;9.154;2023-02-11T14:14:59;7.00;99.90
25342;DHT22;13298;48.792;9.154;2023-02-11T14:17:45;7.00;99.90
25342;DHT22;13298;48.792;9.154;2023-02-11T14:20:37;7.00;99.90
25342;DHT22;13298;48.792;9.154;2023-02-11T14:23:20;7.00;99.90
25342;DHT22;13298;48.792;9.154;2023-02-11T14:28:56;6.90;99.90
25342;DHT22;13298;48.792;9.154;2023-02-11T14:40:17;6.90;99.90
25342;DHT22;13298;48.792;9.154;2023-02-11T14:42:53;6.90;99.90
25342;DHT22;13298;48.792;9.154;2023-02-11T14:45:26;6.90;99.90
25342;DHT22;13298;48.792;9.154;2023-02-11T14:48:14;6.90;99.90
25342;DHT22;13298;48.792;9.154;2023-02-11T14:50:49;7.00;99.90
25342;DHT22;13298;48.792;9.154;2023-02-11T14:53:20;7.00;99.90
25342;DHT22;13298;48.792;9.154;2023-02-11T14:55:51;7.00;99.90
25342;DHT22;13298;48.792;9.154;2023-02-11T14:58:20;7.10;99.90
25342;DHT22;13298;48.792;9.154;2023-02-11T15:00:55;7.20;99.90
25342;DHT22;13298;48.792;9.154;2023-02-11T15:03:36;7.20;99.90
25342;DHT22;13298;48.792;9.154;2023-02-11T15:06:23;7.30;99.90
25342;DHT22;13298;48.792;9.154;2023-02-11T15:08:54;7.30;99.90
25342;DHT22;13298;48.792;9.154;2023-02-11T15:11:23;7.20;99.90
25342;DHT22;13298;48.792;9.154;2023-02-11T15:13:50;7.20;99.90
25342;DHT22;13298;48.792;9.154;2023-02-11T15:16:20;7.10;99.90
25342;DHT22;13298;48.792;9.154;2023-02-11T15:18:50;7.10;99.90
25342;DHT22;13298;48.792;9.154;2023-02-11T15:21:24;7.10;99.90
25342;DHT22;13298;48.792;9.154;2023-02-11T15:23:57;7.00;99.90
25342;DHT22;13298;48.792;9.154;2023-02-11T15:26:31;7.00;99.90
25342;DHT22;13298;48.792;9.154;2023-02-11T15:28:57;6.90;99.90
25342;DHT22;13298;48.792;9.154;2023-02-11T15:31:25;6.70;99.90
25342;DHT22;13298;48.792;9.154;2023-02-11T15:33:52;6.70;99.90
25342;DHT22;13298;48.792;9.154;2023-02-11T15:36:21;6.60;99.90
25342;DHT22;13298;48.792;9.154;2023-02-11T15:39:18;6.50;99.90
25342;DHT22;13298;48.792;9.154;2023-02-11T15:42:24;6.50;99.90
25342;DHT22;13298;48.792;9.154;2023-02-11T15:47:39;6.40;99.90
25342;DHT22;13298;48.792;9.154;2023-02-11T15:50:06;6.40;99.90
25342;DHT22;13298;48.792;9.154;2023-02-11T15:52:45;6.40;99.90
25342;DHT22;13298;48.792;9.154;2023-02-11T15:55:13;6.40;99.90
25342;DHT22;13298;48.792;9.154;2023-02-11T15:57:55;6.40;99.90
25342;DHT22;13298;48.792;9.154;2023-02-11T16:00:24;6.40;99.90
25342;DHT22;13298;48.792;9.154;2023-02-11T16:02:55;6.30;99.90
25342;DHT22;13298;48.792;9.154;2023-02-11T16:07:52;6.30;99.90
25342;DHT22;13298;48.792;9.154;2023-02-11T16:10:28;6.30;99.90
25342;DHT22;13298;48.792;9.154;2023-02-11T16:12:59;6.30;99.90
25342;DHT22;13298;48.792;9.154;2023-02-11T16:18:36;6.20;99.90
25342;DHT22;13298;48.792;9.154;2023-02-11T16:21:05;6.10;99.90
25342;DHT22;13298;48.792;9.154;2023-02-11T16:23:40;6.10;99.90
25342;DHT22;13298;48.792;9.154;2023-02-11T16:26:21;6.10;99.90
25342;DHT22;13298;48.792;9.154;2023-02-11T16:28:51;6.10;99.90
25342;DHT22;13298;48.792;9.154;2023-02-11T16:31:17;6.10;99.90
25342;DHT22;13298;48.792;9.154;2023-02-11T16:33:43;6.10;99.90
25342;DHT22;13298;48.792;9.154;2023-02-11T16:36:11;6.00;99.90
25342;DHT22;13298;48.792;9.154;2023-02-11T16:38:38;6.00;99.90
25342;DHT22;13298;48.792;9.154;2023-02-11T16:41:04;6.00;99.90
25342;DHT22;13298;48.792;9.154;2023-02-11T16:43:30;6.00;99.90
25342;DHT22;13298;48.792;9.154;2023-02-11T16:45:57;5.90;99.90
25342;DHT22;13298;48.792;9.154;2023-02-11T16:48:23;5.90;99.90
25342;DHT22;13298;48.792;9.154;2023-02-11T16:50:49;5.90;99.90
25342;DHT22;13298;48.792;9.154;2023-02-11T16:53:19;5.90;99.90
25342;DHT22;13298;48.792;9.154;2023-02-11T16:55:46;5.90;99.90
25342;DHT22;13298;48.792;9.154;2023-02-11T16:58:12;5.90;99.90
25342;DHT22;13298;48.792;9.154;2023-02-11T17:00:38;5.90;99.90
25342;DHT22;13298;48.792;9.154;2023-02-11T17:03:05;5.90;99.90
25342;DHT22;13298;48.792;9.154;2023-02-11T17:05:32;5.90;99.90
25342;DHT22;13298;48.792;9.154;2023-02-11T17:07:58;5.90;99.90
25342;DHT22;13298;48.792;9.154;2023-02-11T17:10:26;5.90;99.90
25342;DHT22;13298;48.792;9.154;2023-02-11T17:12:53;5.80;99.90
25342;DHT22;13298;48.792;9.154;2023-02-11T17:15:18;5.80;99.90
25342;DHT22;13298;48.792;9.154;2023-02-11T17:17:44;5.80;99.90
25342;DHT22;13298;48.792;9.154;2023-02-11T17:20:12;5.70;99.90
25342;DHT22;13298;48.792;9.154;2023-02-11T17:22:38;5.70;99.90
25342;DHT22;13298;48.792;9.154;2023-02-11T17:25:04;5.60;99.90
25342;DHT22;13298;48.792;9.154;2023-02-11T17:27:30;5.60;99.90
25342;DHT22;13298;48.792;9.154;2023-02-11T17:29:56;5.60;99.90
25342;DHT22;13298;48.792;9.154;2023-02-11T17:32:22;5.60;99.90
25342;DHT22;13298;48.792;9.154;2023-02-11T17:34:48;5.50;99.90
25342;DHT22;13298;48.792;9.154;2023-02-11T17:37:13;5.50;99.90
25342;DHT22;13298;48.792;9.154;2023-02-11T17:39:39;5.50;99.90
25342;DHT22;13298;48.792;9.154;2023-02-11T17:42:05;5.50;99.90
25342;DHT22;13298;48.792;9.154;2023-02-11T17:44:32;5.50;99.90
25342;DHT22;13298;48.792;9.154;2023-02-11T17:46:57;5.50;99.90
25342;DHT22;13298;48.792;9.154;2023-02-11T17:49:23;5.40;99.90
25342;DHT22;13298;48.792;9.154;2023-02-11T17:51:49;5.40;99.90
25342;DHT22;13298;48.792;9.154;2023-02-11T17:54:17;5.40;99.90
25342;DHT22;13298;48.792;9.154;2023-02-11T17:56:44;5.50;99.90
25342;DHT22;13298;48.792;9.154;2023-02-11T17:59:11;5.50;99.90
25342;DHT22;13298;48.792;9.154;2023-02-11T18:01:39;5.50;99.90
25342;DHT22;13298;48.792;9.154;2023-02-11T18:04:06;5.50;99.90
25342;DHT22;13298;48.792;9.154;2023-02-11T18:06:33;5.50;99.90
25342;DHT22;13298;48.792;9.154;2023-02-11T18:09:00;5.50;99.90
25342;DHT22;13298;48.792;9.154;2023-02-11T18:11:30;5.50;99.90
25342;DHT22;13298;48.792;9.154;2023-02-11T18:14:02;5.50;99.90
25342;DHT22;13298;48.792;9.154;2023-02-11T18:16:29;5.50;99.90
25342;DHT22;13298;48.792;9.154;2023-02-11T18:18:55;5.40;99.90
25342;DHT22;13298;48.792;9.154;2023-02-11T18:21:23;5.40;99.90